Time;durP1;ratioP1;P1;durP2;ratioP2;P2;SDS_P1;SDS_P2;PMS_P1;PMS_P2;Temp;Humidity;BMP_temperature;BMP_pressure;BME280_temperature;BME280_humidity;BME280_pressure;Samples;Min_cycle;Max_cycle;Signal;HPM_P1;HPM_P2
2021/09/04 00:00:12;;;;;;;18.20;12.18;;;15.00;91.10;;;;;;2608871;54;20071;-70
2021/09/04 00:02:37;;;;;;;19.13;12.02;;;15.00;91.10;;;;;;2607654;54;20030;-70
2021/09/04 00:05:04;;;;;;;18.67;12.95;;;15.00;91.20;;;;;;2609183;54;20075;-69
2021/09/04 00:07:31;;;;;;;19.02;13.10;;;14.90;91.30;;;;;;2607842;39;20711;-69
2021/09/04 00:09:59;;;;;;;20.77;13.70;;;14.90;91.30;;;;;;2608685;54;20031;-69
2021/09/04 00:12:26;;;;;;;20.27;12.95;;;14.90;91.40;;;;;;2608557;54;20583;-70
2021/09/04 00:14:56;;;;;;;22.77;14.20;;;14.90;91.40;;;;;;2608164;47;20165;-70
2021/09/04 00:17:22;;;;;;;20.85;13.68;;;14.90;91.50;;;;;;2607920;54;20034;-69
2021/09/04 00:19:48;;;;;;;20.38;12.82;;;14.90;91.50;;;;;;2609352;39;20768;-70
2021/09/04 00:22:13;;;;;;;20.50;13.73;;;14.90;91.30;;;;;;2608254;54;20038;-70
2021/09/04 00:24:39;;;;;;;21.17;13.75;;;14.80;91.30;;;;;;2608305;54;20053;-69
2021/09/04 00:27:06;;;;;;;19.90;12.98;;;14.80;91.40;;;;;;2608812;54;20093;-69
2021/09/04 00:29:33;;;;;;;19.23;13.48;;;14.80;91.50;;;;;;2607168;39;20442;-69
2021/09/04 00:31:59;;;;;;;19.65;12.90;;;14.70;91.60;;;;;;2608384;54;20031;-69
2021/09/04 00:34:25;;;;;;;19.63;12.95;;;14.70;91.60;;;;;;2608339;54;20034;-69
2021/09/04 00:36:51;;;;;;;18.17;12.48;;;14.70;91.60;;;;;;2608532;54;20046;-69
2021/09/04 00:39:16;;;;;;;19.38;13.05;;;14.70;91.60;;;;;;2608540;54;20075;-69
2021/09/04 00:41:43;;;;;;;20.98;13.05;;;14.70;91.60;;;;;;2608843;54;20038;-69
2021/09/04 00:44:17;;;;;;;21.27;13.13;;;14.70;91.60;;;;;;2609704;54;20599;-69
2021/09/04 00:46:44;;;;;;;22.27;13.38;;;14.60;91.60;;;;;;2609262;54;20042;-69
2021/09/04 00:49:10;;;;;;;19.05;12.50;;;14.70;91.60;;;;;;2609392;54;20034;-69
2021/09/04 00:51:36;;;;;;;19.85;12.23;;;14.60;91.50;;;;;;2609205;54;20034;-69
2021/09/04 00:54:02;;;;;;;20.83;13.40;;;14.60;91.60;;;;;;2609081;54;20029;-69
2021/09/04 00:56:27;;;;;;;18.20;12.65;;;14.60;91.50;;;;;;2609696;54;20047;-69
2021/09/04 01:05:52;;;;;;;21.98;13.88;;;14.50;91.60;;;;;;2609613;54;20026;-69
2021/09/04 01:08:19;;;;;;;22.50;14.50;;;14.40;91.60;;;;;;2609781;54;20038;-69
2021/09/04 01:10:51;;;;;;;21.42;13.10;;;14.40;91.60;;;;;;2609957;54;20033;-69
2021/09/04 01:13:17;;;;;;;20.95;12.88;;;14.40;91.60;;;;;;2609881;39;20411;-69
2021/09/04 01:15:44;;;;;;;19.38;12.02;;;14.40;91.60;;;;;;2609196;54;20034;-69
2021/09/04 01:18:09;;;;;;;20.92;12.85;;;14.30;91.70;;;;;;2609812;54;20035;-69
2021/09/04 01:20:35;;;;;;;21.38;13.70;;;14.30;91.70;;;;;;2609340;54;20069;-70
2021/09/04 01:23:01;;;;;;;20.20;13.13;;;14.30;91.70;;;;;;2609444;54;20633;-70
2021/09/04 01:25:29;;;;;;;18.95;12.90;;;14.40;91.80;;;;;;2610238;54;20030;-70
2021/09/04 01:28:00;;;;;;;20.27;13.25;;;14.30;91.70;;;;;;2609785;54;20067;-72
2021/09/04 01:30:28;;;;;;;20.10;12.98;;;14.30;91.60;;;;;;2609782;54;20044;-74
2021/09/04 01:32:54;;;;;;;21.17;13.85;;;14.30;91.50;;;;;;2608636;54;20038;-72
2021/09/04 01:35:22;;;;;;;21.20;13.15;;;14.30;91.60;;;;;;2609835;54;20131;-72
2021/09/04 01:37:48;;;;;;;18.90;12.10;;;14.30;91.60;;;;;;2608863;54;20081;-72
2021/09/04 01:40:16;;;;;;;20.65;13.05;;;14.20;91.50;;;;;;2610343;39;20831;-73
2021/09/04 01:42:44;;;;;;;19.33;12.70;;;14.30;91.50;;;;;;2609291;54;20154;-72
2021/09/04 01:45:11;;;;;;;19.00;12.57;;;14.20;91.50;;;;;;2608719;47;20038;-72
2021/09/04 01:47:37;;;;;;;19.35;13.30;;;14.20;91.50;;;;;;2609592;54;20046;-73
2021/09/04 01:50:05;;;;;;;19.13;12.95;;;14.20;91.40;;;;;;2608896;54;20042;-72
2021/09/04 01:52:31;;;;;;;20.02;12.80;;;14.20;91.40;;;;;;2609139;54;20107;-72
2021/09/04 01:54:57;;;;;;;20.33;13.23;;;14.10;91.40;;;;;;2609484;54;20816;-72
2021/09/04 01:57:23;;;;;;;19.48;12.60;;;14.10;91.50;;;;;;2610066;54;20034;-73
2021/09/04 01:59:48;;;;;;;19.23;12.82;;;14.10;91.60;;;;;;2609942;39;20480;-73
2021/09/04 02:02:14;;;;;;;18.75;12.57;;;14.10;91.60;;;;;;2610284;54;20041;-73
2021/09/04 02:04:40;;;;;;;20.65;12.13;;;14.10;91.70;;;;;;2610284;54;20033;-73
2021/09/04 02:07:06;;;;;;;18.90;12.65;;;14.10;91.70;;;;;;2609923;39;20785;-72
2021/09/04 02:09:32;;;;;;;22.45;12.70;;;14.10;91.60;;;;;;2609629;54;20026;-73
2021/09/04 02:11:58;;;;;;;18.25;12.38;;;14.00;91.60;;;;;;2609940;54;20070;-73
2021/09/04 02:14:23;;;;;;;18.13;12.20;;;14.00;91.60;;;;;;2610190;54;20030;-73
2021/09/04 02:16:49;;;;;;;19.67;12.80;;;14.00;91.60;;;;;;2610458;39;20802;-72
2021/09/04 02:19:16;;;;;;;21.83;12.73;;;13.90;91.60;;;;;;2610057;54;20034;-73
2021/09/04 02:21:42;;;;;;;17.60;11.70;;;14.00;91.60;;;;;;2609357;54;20063;-73
2021/09/04 02:24:09;;;;;;;17.98;12.10;;;14.00;91.60;;;;;;2609964;54;20139;-73
2021/09/04 02:26:36;;;;;;;19.42;12.35;;;14.00;91.60;;;;;;2610327;54;20038;-72
2021/09/04 02:29:02;;;;;;;20.38;12.23;;;14.00;91.60;;;;;;2609001;54;20033;-73
2021/09/04 02:31:28;;;;;;;18.92;12.02;;;14.00;91.70;;;;;;2610102;54;20038;-72
2021/09/04 02:33:56;;;;;;;20.88;13.18;;;13.90;91.90;;;;;;2609809;54;20038;-73
2021/09/04 02:36:23;;;;;;;21.02;12.95;;;14.00;92.10;;;;;;2609685;54;20030;-73
2021/09/04 02:38:49;;;;;;;18.02;12.35;;;14.00;92.20;;;;;;2609051;54;20185;-73
2021/09/04 02:41:17;;;;;;;21.88;12.75;;;14.10;92.20;;;;;;2609885;54;20041;-73
2021/09/04 02:43:43;;;;;;;18.50;12.30;;;14.10;92.30;;;;;;2609982;54;20038;-73
2021/09/04 02:46:10;;;;;;;23.38;13.07;;;14.20;92.30;;;;;;2609616;54;20045;-73
2021/09/04 02:48:36;;;;;;;24.42;13.30;;;14.30;92.30;;;;;;2609796;54;20090;-73
2021/09/04 02:51:02;;;;;;;19.77;13.55;;;14.40;92.40;;;;;;2609593;54;20122;-72
2021/09/04 02:53:29;;;;;;;22.17;12.82;;;14.50;92.40;;;;;;2610148;54;20145;-72
2021/09/04 02:55:56;;;;;;;20.55;12.95;;;14.60;92.30;;;;;;2609913;54;20026;-73
2021/09/04 02:58:21;;;;;;;24.40;13.50;;;14.60;92.20;;;;;;2608257;47;20084;-73
2021/09/04 03:00:47;;;;;;;24.90;13.48;;;14.70;92.20;;;;;;2609854;54;20034;-72
2021/09/04 03:03:14;;;;;;;26.48;13.93;;;14.80;92.30;;;;;;2609340;54;20106;-71
2021/09/04 03:05:40;;;;;;;32.33;15.07;;;14.80;92.20;;;;;;2609651;54;21123;-72
2021/09/04 03:08:06;;;;;;;26.45;15.13;;;14.90;92.30;;;;;;2609209;54;20030;-71
2021/09/04 03:10:32;;;;;;;28.08;14.65;;;15.00;92.30;;;;;;2609619;54;20998;-72
2021/09/04 03:13:00;;;;;;;29.00;15.43;;;15.00;92.30;;;;;;2609578;54;20134;-72
2021/09/04 03:15:26;;;;;;;36.10;15.85;;;15.00;92.30;;;;;;2609547;39;20431;-72
2021/09/04 03:17:52;;;;;;;28.15;14.13;;;15.10;92.20;;;;;;2609480;54;20031;-72
2021/09/04 03:20:19;;;;;;;27.10;15.35;;;15.10;92.10;;;;;;2609137;54;20022;-72
2021/09/04 03:22:47;;;;;;;28.27;15.82;;;15.10;92.20;;;;;;2608702;54;20888;-72
2021/09/04 03:25:14;;;;;;;26.20;14.25;;;15.20;92.30;;;;;;2609306;54;20901;-72
2021/09/04 03:27:41;;;;;;;26.00;13.05;;;15.20;92.20;;;;;;2609338;39;20273;-72
2021/09/04 03:30:08;;;;;;;22.88;13.55;;;15.20;92.20;;;;;;2609342;54;20055;-72
2021/09/04 03:32:34;;;;;;;21.63;13.90;;;15.20;92.20;;;;;;2608661;54;20034;-72
2021/09/04 03:35:00;;;;;;;19.63;12.43;;;15.20;92.10;;;;;;2609647;54;20042;-72
2021/09/04 03:37:26;;;;;;;23.75;14.68;;;15.20;92.10;;;;;;2609648;39;20651;-72
2021/09/04 03:39:53;;;;;;;26.13;14.10;;;15.30;91.90;;;;;;2609066;47;20055;-72
2021/09/04 03:42:18;;;;;;;22.42;13.10;;;15.20;92.00;;;;;;2609256;54;20038;-73
2021/09/04 03:44:44;;;;;;;23.45;14.20;;;15.20;92.00;;;;;;2609378;54;20035;-72
2021/09/04 03:47:11;;;;;;;25.20;13.82;;;15.30;92.00;;;;;;2609227;54;20050;-72
2021/09/04 03:49:36;;;;;;;24.85;13.80;;;15.30;92.00;;;;;;2609085;54;20038;-72
2021/09/04 03:52:04;;;;;;;25.30;13.57;;;15.30;92.00;;;;;;2609145;54;20042;-72
2021/09/04 03:54:32;;;;;;;24.92;14.07;;;15.30;92.00;;;;;;2608738;54;20071;-71
2021/09/04 03:56:59;;;;;;;23.23;13.32;;;15.30;92.00;;;;;;2609032;54;20094;-72
2021/09/04 03:59:26;;;;;;;25.73;14.15;;;15.40;92.00;;;;;;2609029;54;20043;-72
2021/09/04 04:01:52;;;;;;;20.35;12.88;;;15.40;91.80;;;;;;2609688;54;20049;-72
2021/09/04 04:04:18;;;;;;;16.15;10.63;;;15.40;91.70;;;;;;2609144;54;20023;-72
2021/09/04 04:06:45;;;;;;;20.83;11.32;;;15.40;91.70;;;;;;2609208;54;20030;-72
2021/09/04 04:09:11;;;;;;;15.48;10.40;;;15.30;91.90;;;;;;2609153;54;20027;-72
2021/09/04 04:11:38;;;;;;;17.83;11.43;;;15.30;91.90;;;;;;2609011;54;20148;-72
2021/09/04 04:14:04;;;;;;;15.25;9.85;;;15.30;91.80;;;;;;2608982;54;20037;-72
2021/09/04 04:16:30;;;;;;;19.23;11.13;;;15.30;91.90;;;;;;2609249;54;20042;-72
2021/09/04 04:18:57;;;;;;;15.50;10.50;;;15.20;91.90;;;;;;2609806;54;20045;-72
2021/09/04 04:21:22;;;;;;;14.93;10.05;;;15.20;91.90;;;;;;2608748;54;20030;-73
2021/09/04 04:23:49;;;;;;;15.63;9.85;;;15.20;91.90;;;;;;2609606;54;20039;-73
2021/09/04 04:26:17;;;;;;;15.73;10.20;;;15.20;91.90;;;;;;2610503;39;20434;-73
2021/09/04 04:28:43;;;;;;;17.33;10.27;;;15.20;92.00;;;;;;2609052;54;20030;-72
2021/09/04 04:31:09;;;;;;;16.52;10.23;;;15.30;92.00;;;;;;2610156;54;20050;-72
2021/09/04 04:33:36;;;;;;;18.38;10.32;;;15.30;91.90;;;;;;2609921;54;20038;-73
2021/09/04 04:36:02;;;;;;;14.70;10.20;;;15.20;91.90;;;;;;2609969;54;20031;-73
2021/09/04 04:38:28;;;;;;;14.93;10.35;;;15.30;92.00;;;;;;2609376;54;20037;-72
2021/09/04 04:40:55;;;;;;;16.20;11.00;;;15.30;92.10;;;;;;2610343;39;20795;-73
2021/09/04 04:43:22;;;;;;;14.48;10.55;;;15.30;92.10;;;;;;2610071;54;20582;-73
2021/09/04 04:45:48;;;;;;;18.50;11.75;;;15.30;92.10;;;;;;2609621;54;20036;-73
2021/09/04 04:48:15;;;;;;;17.77;11.63;;;15.30;92.50;;;;;;2610014;54;20077;-71
2021/09/04 04:50:41;;;;;;;15.23;10.30;;;15.30;92.10;;;;;;2608643;47;20034;-71
2021/09/04 04:53:07;;;;;;;18.05;10.90;;;15.30;92.10;;;;;;2609816;54;20094;-72
2021/09/04 04:55:33;;;;;;;15.02;9.45;;;15.30;92.10;;;;;;2608829;54;20058;-73
2021/09/04 04:58:00;;;;;;;18.85;11.73;;;15.40;92.10;;;;;;2609582;39;20851;-73
2021/09/04 05:00:29;;;;;;;18.52;11.18;;;15.40;92.10;;;;;;2609789;54;20022;-73
2021/09/04 05:02:55;;;;;;;18.58;11.35;;;15.40;92.10;;;;;;2609486;54;20046;-73
2021/09/04 05:05:23;;;;;;;18.45;11.00;;;15.40;92.20;;;;;;2609393;54;20023;-73
2021/09/04 05:07:50;;;;;;;16.70;10.30;;;15.40;92.20;;;;;;2609120;54;20034;-73
2021/09/04 05:10:16;;;;;;;15.45;10.13;;;15.40;92.20;;;;;;2609862;54;20034;-72
2021/09/04 05:12:43;;;;;;;15.30;10.80;;;15.40;92.00;;;;;;2608641;54;20035;-73
2021/09/04 05:15:10;;;;;;;15.45;9.90;;;15.40;91.90;;;;;;2609978;54;20035;-73
2021/09/04 05:17:36;;;;;;;27.50;10.35;;;15.40;91.90;;;;;;2609403;54;20147;-73
2021/09/04 05:20:05;;;;;;;15.85;9.18;;;15.50;91.70;;;;;;2609193;54;20074;-73
2021/09/04 05:22:31;;;;;;;17.50;9.20;;;15.40;91.70;;;;;;2609460;54;20042;-73
2021/09/04 05:24:57;;;;;;;17.17;10.60;;;15.40;91.70;;;;;;2608939;54;20042;-72
2021/09/04 05:27:25;;;;;;;14.10;9.45;;;15.40;91.70;;;;;;2608869;54;20038;-73
2021/09/04 05:29:52;;;;;;;15.40;9.95;;;15.50;91.70;;;;;;2609688;39;20785;-73
2021/09/04 05:32:23;;;;;;;15.27;9.63;;;15.50;91.70;;;;;;2609620;54;20034;-72
2021/09/04 05:34:50;;;;;;;18.48;9.75;;;15.50;91.70;;;;;;2609891;39;20335;-72
2021/09/04 05:37:17;;;;;;;16.52;10.27;;;15.50;91.70;;;;;;2609064;54;20605;-71
2021/09/04 05:39:43;;;;;;;16.73;9.68;;;15.50;91.60;;;;;;2609743;54;20122;-73
2021/09/04 05:42:09;;;;;;;14.20;9.82;;;15.60;91.70;;;;;;2609839;39;20371;-72
2021/09/04 05:44:35;;;;;;;15.13;10.27;;;15.60;91.40;;;;;;2610006;54;20030;-73
2021/09/04 05:47:00;;;;;;;18.38;11.38;;;15.60;91.50;;;;;;2607931;47;20760;-73
2021/09/04 05:49:26;;;;;;;20.40;10.18;;;15.60;91.60;;;;;;2609369;54;20039;-72
2021/09/04 05:51:52;;;;;;;19.33;10.43;;;15.60;91.50;;;;;;2609624;54;20962;-72
2021/09/04 05:54:17;;;;;;;20.50;12.30;;;15.60;91.60;;;;;;2609695;54;20030;-71
2021/09/04 05:56:43;;;;;;;17.10;10.50;;;15.60;91.50;;;;;;2609652;54;20030;-72
2021/09/04 05:59:09;;;;;;;19.20;11.63;;;15.60;91.60;;;;;;2608987;54;20031;-72
2021/09/04 06:01:35;;;;;;;18.60;10.55;;;15.60;91.70;;;;;;2609720;54;20046;-72
2021/09/04 06:04:01;;;;;;;18.48;10.85;;;15.60;91.60;;;;;;2608989;54;20033;-72
2021/09/04 06:06:26;;;;;;;19.05;11.77;;;15.60;91.60;;;;;;2609305;54;20043;-72
2021/09/04 06:08:52;;;;;;;17.95;11.00;;;15.60;91.70;;;;;;2609136;54;20118;-72
2021/09/04 06:11:18;;;;;;;21.08;12.38;;;15.70;91.70;;;;;;2609814;54;20137;-72
2021/09/04 06:13:43;;;;;;;18.42;11.60;;;15.70;91.60;;;;;;2610406;54;20038;-72
2021/09/04 06:16:09;;;;;;;18.17;11.60;;;15.70;91.60;;;;;;2610030;54;21016;-72
2021/09/04 06:18:35;;;;;;;23.33;12.40;;;15.70;91.60;;;;;;2609664;54;20034;-72
2021/09/04 06:21:01;;;;;;;19.58;12.57;;;15.70;91.60;;;;;;2610346;39;20530;-71
2021/09/04 06:23:26;;;;;;;20.17;12.52;;;15.70;91.70;;;;;;2610100;46;20114;-71
2021/09/04 06:25:52;;;;;;;25.52;13.25;;;15.80;91.70;;;;;;2607821;54;20042;-73
2021/09/04 06:28:17;;;;;;;21.85;12.48;;;15.80;91.70;;;;;;2609868;54;20035;-73
2021/09/04 06:30:43;;;;;;;20.85;11.80;;;15.90;91.70;;;;;;2609873;54;20061;-73
2021/09/04 06:33:09;;;;;;;24.17;12.18;;;15.90;91.60;;;;;;2609457;54;20037;-73
2021/09/04 06:35:35;;;;;;;19.33;12.05;;;15.90;91.50;;;;;;2609673;54;20049;-73
2021/09/04 06:38:00;;;;;;;22.63;11.70;;;15.90;91.40;;;;;;2608916;54;20063;-72
2021/09/04 06:40:26;;;;;;;19.73;11.07;;;16.00;91.40;;;;;;2609569;54;20038;-73
2021/09/04 06:42:51;;;;;;;33.35;13.20;;;16.00;91.30;;;;;;2610118;54;20042;-72
2021/09/04 06:45:17;;;;;;;25.75;12.38;;;16.00;91.20;;;;;;2609523;54;20039;-72
2021/09/04 06:47:43;;;;;;;28.60;11.57;;;15.90;91.10;;;;;;2610113;39;20457;-72
2021/09/04 06:50:09;;;;;;;23.08;11.27;;;15.90;91.00;;;;;;2609622;54;20042;-73
2021/09/04 06:52:35;;;;;;;20.98;11.55;;;15.90;91.20;;;;;;2608345;46;20073;-72
2021/09/04 06:55:00;;;;;;;24.40;10.80;;;15.90;91.20;;;;;;2609468;54;20034;-72
2021/09/04 06:57:26;;;;;;;23.30;11.95;;;15.90;91.20;;;;;;2608902;47;20054;-74
2021/09/04 06:59:52;;;;;;;20.55;10.80;;;16.00;91.10;;;;;;2609937;54;20042;-72
2021/09/04 07:02:18;;;;;;;22.42;11.50;;;16.00;91.10;;;;;;2607497;54;20065;-72
2021/09/04 07:04:43;;;;;;;19.05;10.32;;;16.00;91.00;;;;;;2609825;54;20134;-72
2021/09/04 07:07:09;;;;;;;18.27;10.15;;;16.00;91.00;;;;;;2609050;54;20157;-72
2021/09/04 07:09:37;;;;;;;22.45;12.07;;;16.00;91.00;;;;;;2609458;54;20042;-73
2021/09/04 07:12:03;;;;;;;19.70;9.93;;;16.10;91.00;;;;;;2609712;54;20034;-72
2021/09/04 07:14:28;;;;;;;20.27;10.38;;;16.10;91.00;;;;;;2609506;54;20073;-72
2021/09/04 07:16:54;;;;;;;22.60;10.88;;;16.20;91.00;;;;;;2609372;54;20153;-72
2021/09/04 07:19:20;;;;;;;17.98;9.68;;;16.20;90.80;;;;;;2608264;54;20031;-73
2021/09/04 07:21:45;;;;;;;25.95;11.15;;;16.30;90.60;;;;;;2609111;51;20065;-72
2021/09/04 07:24:11;;;;;;;18.70;10.65;;;16.30;90.60;;;;;;2609456;54;20470;-72
2021/09/04 07:26:37;;;;;;;19.77;9.80;;;16.30;90.60;;;;;;2609470;54;20060;-71
2021/09/04 07:29:03;;;;;;;21.52;9.80;;;16.30;90.60;;;;;;2609006;54;20038;-72
2021/09/04 07:31:29;;;;;;;14.60;9.35;;;16.30;90.50;;;;;;2609314;54;20078;-72
2021/09/04 07:33:54;;;;;;;21.75;9.60;;;16.30;90.40;;;;;;2609885;54;20034;-72
2021/09/04 07:36:20;;;;;;;15.55;9.35;;;16.40;90.30;;;;;;2609293;54;20038;-72
2021/09/04 07:38:46;;;;;;;18.38;9.60;;;16.40;90.40;;;;;;2608589;47;20046;-72
2021/09/04 07:41:12;;;;;;;23.55;10.95;;;16.40;90.40;;;;;;2609628;54;20610;-72
2021/09/04 07:43:38;;;;;;;19.02;9.57;;;16.50;90.30;;;;;;2609133;54;20046;-72
2021/09/04 07:46:03;;;;;;;19.02;9.73;;;16.50;90.20;;;;;;2609357;54;20058;-72
2021/09/04 07:48:29;;;;;;;18.67;9.30;;;16.50;90.20;;;;;;2608539;54;20130;-72
2021/09/04 07:50:55;;;;;;;19.20;9.85;;;16.50;90.30;;;;;;2610062;54;20038;-72
2021/09/04 07:53:21;;;;;;;12.20;7.47;;;16.50;90.30;;;;;;2609874;54;20073;-72
2021/09/04 07:55:47;;;;;;;19.42;9.55;;;16.60;90.20;;;;;;2609090;54;20034;-72
2021/09/04 07:58:13;;;;;;;21.95;9.40;;;16.70;89.80;;;;;;2609534;54;20199;-72
2021/09/04 08:00:40;;;;;;;18.00;8.60;;;16.70;89.80;;;;;;2608772;54;20039;-72
2021/09/04 08:03:05;;;;;;;19.30;9.20;;;16.70;89.80;;;;;;2608738;54;20565;-72
2021/09/04 08:05:31;;;;;;;19.27;9.13;;;16.70;89.50;;;;;;2608571;54;20039;-72
2021/09/04 08:07:57;;;;;;;13.73;8.30;;;16.70;89.40;;;;;;2608964;54;20171;-72
2021/09/04 08:10:22;;;;;;;18.73;9.00;;;16.70;89.60;;;;;;2609192;54;20054;-72
2021/09/04 08:12:48;;;;;;;15.57;9.15;;;16.70;89.60;;;;;;2608961;54;20049;-74
2021/09/04 08:15:14;;;;;;;18.80;9.23;;;16.80;89.50;;;;;;2609554;54;20081;-74
2021/09/04 08:17:40;;;;;;;17.45;8.65;;;16.80;89.00;;;;;;2608340;54;20044;-71
2021/09/04 08:20:06;;;;;;;18.92;9.60;;;16.80;88.90;;;;;;2609237;54;20038;-72
2021/09/04 08:22:32;;;;;;;16.42;9.20;;;16.80;89.10;;;;;;2609341;54;20550;-71
2021/09/04 08:24:58;;;;;;;14.70;8.20;;;16.80;89.10;;;;;;2607921;54;20046;-71
2021/09/04 08:27:23;;;;;;;16.70;9.15;;;16.90;89.30;;;;;;2608918;54;20034;-72
2021/09/04 08:29:49;;;;;;;16.73;8.82;;;16.90;88.60;;;;;;2608422;54;20034;-71
2021/09/04 08:32:15;;;;;;;21.10;10.18;;;17.00;88.50;;;;;;2608470;54;21070;-71
2021/09/04 08:34:40;;;;;;;15.95;8.40;;;17.00;88.40;;;;;;2609170;54;20063;-72
2021/09/04 08:37:06;;;;;;;14.77;9.18;;;17.10;88.30;;;;;;2609454;39;20655;-73
2021/09/04 08:39:32;;;;;;;20.58;10.00;;;17.10;87.80;;;;;;2609038;54;20035;-73
2021/09/04 08:41:58;;;;;;;14.93;8.90;;;17.20;87.70;;;;;;2608771;54;20046;-73
2021/09/04 08:44:24;;;;;;;17.05;9.68;;;17.20;87.60;;;;;;2609710;54;20059;-73
2021/09/04 08:46:51;;;;;;;21.48;9.60;;;17.30;87.00;;;;;;2608828;54;20039;-73
2021/09/04 08:49:18;;;;;;;18.92;9.63;;;17.30;87.50;;;;;;2609794;54;20656;-73
2021/09/04 08:51:44;;;;;;;19.23;9.77;;;17.30;87.30;;;;;;2610074;54;20034;-73
2021/09/04 08:54:10;;;;;;;18.98;9.70;;;17.30;87.10;;;;;;2609063;54;20084;-73
2021/09/04 08:56:36;;;;;;;16.40;9.50;;;17.40;87.00;;;;;;2609709;54;20045;-73
2021/09/04 08:59:02;;;;;;;16.58;9.27;;;17.40;86.90;;;;;;2608803;54;20038;-73
2021/09/04 09:01:29;;;;;;;20.88;10.73;;;17.50;86.20;;;;;;2609421;54;20031;-73
2021/09/04 09:04:01;;;;;;;15.30;9.18;;;17.50;85.90;;;;;;2609476;54;20034;-73
2021/09/04 09:06:33;;;;;;;17.63;9.27;;;17.50;86.10;;;;;;2610410;54;20041;-78
2021/09/04 09:08:59;;;;;;;18.83;9.55;;;17.60;86.20;;;;;;2610544;39;20466;-75
2021/09/04 09:11:24;;;;;;;17.00;9.30;;;17.60;86.00;;;;;;2609865;54;20050;-75
2021/09/04 09:13:55;;;;;;;19.88;9.15;;;17.60;85.80;;;;;;2610918;39;20643;-75
2021/09/04 09:16:23;;;;;;;21.70;9.52;;;17.70;86.20;;;;;;2609552;54;20041;-75
2021/09/04 09:19:01;;;;;;;16.88;9.48;;;17.70;86.20;;;;;;2610214;54;20034;-75
2021/09/04 09:21:36;;;;;;;16.33;8.98;;;17.80;85.90;;;;;;2609927;54;20034;-76
2021/09/04 09:24:19;;;;;;;16.40;9.07;;;17.80;85.60;;;;;;2610029;54;20045;-75
2021/09/04 09:26:54;;;;;;;18.30;10.57;;;17.90;85.20;;;;;;2610341;54;20042;-75
2021/09/04 09:29:26;;;;;;;19.13;10.10;;;18.00;84.00;;;;;;2609197;54;20043;-75
2021/09/04 09:32:10;;;;;;;17.67;9.05;;;17.90;84.30;;;;;;2608291;47;20026;-75
2021/09/04 09:34:40;;;;;;;19.05;9.30;;;18.00;85.00;;;;;;2608584;54;20094;-75
2021/09/04 09:37:07;;;;;;;18.23;9.38;;;18.00;84.50;;;;;;2609621;54;20153;-75
2021/09/04 09:39:41;;;;;;;18.55;8.95;;;18.10;84.00;;;;;;2609373;54;20042;-75
2021/09/04 09:42:10;;;;;;;18.05;8.52;;;18.20;83.50;;;;;;2610312;54;20069;-75
2021/09/04 09:44:37;;;;;;;15.25;7.93;;;18.30;83.80;;;;;;2608583;54;20584;-75
2021/09/04 09:47:08;;;;;;;18.33;8.82;;;18.40;83.20;;;;;;2607278;54;20038;-74
2021/09/04 09:49:46;;;;;;;13.82;7.80;;;18.50;82.50;;;;;;2608482;54;20042;-75
2021/09/04 09:52:15;;;;;;;14.60;8.18;;;18.50;82.40;;;;;;2608308;39;20774;-75
2021/09/04 09:54:42;;;;;;;14.40;8.15;;;18.60;82.20;;;;;;2608309;54;20053;-75
2021/09/04 09:57:10;;;;;;;15.05;7.90;;;18.70;82.20;;;;;;2607614;54;20604;-75
2021/09/04 09:59:38;;;;;;;18.02;8.27;;;18.70;82.50;;;;;;2608669;54;20039;-75
2021/09/04 10:02:08;;;;;;;13.38;7.75;;;18.80;82.00;;;;;;2608618;54;20083;-75
2021/09/04 10:04:36;;;;;;;12.60;7.50;;;18.80;81.40;;;;;;2608167;54;20072;-75
2021/09/04 10:07:04;;;;;;;16.33;8.00;;;18.80;81.20;;;;;;2608607;54;20041;-74
2021/09/04 10:09:30;;;;;;;14.70;7.97;;;18.80;81.00;;;;;;2607471;54;20035;-75
2021/09/04 10:11:56;;;;;;;12.00;7.55;;;18.80;80.40;;;;;;2608489;54;20055;-75
2021/09/04 10:14:23;;;;;;;18.15;8.43;;;18.80;80.10;;;;;;2607843;54;20038;-75
2021/09/04 10:16:58;;;;;;;17.25;8.60;;;18.80;80.80;;;;;;2609532;54;20039;-75
2021/09/04 10:19:31;;;;;;;12.85;7.20;;;18.80;80.40;;;;;;2609352;54;20146;-75
2021/09/04 10:22:08;;;;;;;13.65;7.78;;;18.90;80.50;;;;;;2609613;39;20447;-75
2021/09/04 10:24:42;;;;;;;14.10;7.80;;;19.00;80.40;;;;;;2609971;54;20049;-75
2021/09/04 10:27:10;;;;;;;12.00;7.75;;;19.20;78.70;;;;;;2608944;54;20146;-75
2021/09/04 10:29:44;;;;;;;13.15;7.60;;;19.20;79.00;;;;;;2609150;54;20038;-75
2021/09/04 10:32:17;;;;;;;14.77;8.60;;;19.30;79.40;;;;;;2608845;54;20936;-75
2021/09/04 10:34:45;;;;;;;15.32;8.88;;;19.40;78.70;;;;;;2609795;54;20046;-75
2021/09/04 10:37:18;;;;;;;11.90;7.47;;;19.40;77.20;;;;;;2609494;54;20045;-74
2021/09/04 10:40:07;;;;;;;11.55;7.78;;;19.40;78.20;;;;;;2609474;54;20030;-75
2021/09/04 10:42:41;;;;;;;15.77;7.90;;;19.40;78.40;;;;;;2610399;39;20205;-74
2021/09/04 10:45:11;;;;;;;14.98;7.63;;;19.50;78.60;;;;;;2608589;47;20042;-74
2021/09/04 10:48:16;;;;;;;13.77;7.63;;;19.50;78.70;;;;;;2609694;54;20050;-74
2021/09/04 10:50:59;;;;;;;13.45;7.85;;;19.50;76.50;;;;;;2609487;54;20123;-74
2021/09/04 10:53:43;;;;;;;10.60;7.00;;;19.50;77.40;;;;;;2610000;54;20062;-74
2021/09/04 10:56:20;;;;;;;13.25;7.10;;;19.60;78.70;;;;;;2609000;54;20042;-74
2021/09/04 10:58:45;;;;;;;17.40;8.15;;;19.60;79.40;;;;;;2609384;54;20042;-74
2021/09/04 11:01:17;;;;;;;12.00;6.68;;;19.60;78.40;;;;;;2608942;47;20129;-74
2021/09/04 11:03:42;;;;;;;12.85;6.95;;;19.70;77.70;;;;;;2609514;54;20889;-74
2021/09/04 11:06:17;;;;;;;10.88;6.88;;;19.70;78.00;;;;;;2609914;54;20185;-74
2021/09/04 11:08:44;;;;;;;14.80;7.68;;;19.80;78.30;;;;;;2608917;54;20050;-74
2021/09/04 11:11:17;;;;;;;12.32;7.13;;;19.90;77.10;;;;;;2610117;39;20260;-74
2021/09/04 11:13:45;;;;;;;10.27;6.60;;;19.90;76.90;;;;;;2609425;54;20059;-74
2021/09/04 11:16:31;;;;;;;13.40;7.55;;;19.90;77.00;;;;;;2609752;54;20031;-74
2021/09/04 11:19:26;;;;;;;10.27;6.80;;;20.00;76.40;;;;;;2609395;54;20138;-74
2021/09/04 11:22:03;;;;;;;15.27;7.43;;;20.00;75.90;;;;;;2609384;54;20038;-74
2021/09/04 11:24:40;;;;;;;10.85;6.88;;;20.00;76.10;;;;;;2610135;54;20044;-74
2021/09/04 11:27:13;;;;;;;13.30;7.60;;;20.00;75.70;;;;;;2609793;39;20491;-74
2021/09/04 11:29:42;;;;;;;14.93;7.20;;;20.00;75.40;;;;;;2609572;54;20045;-74
2021/09/04 11:32:10;;;;;;;14.50;7.47;;;20.00;76.00;;;;;;2609438;39;20769;-74
2021/09/04 11:34:41;;;;;;;12.38;7.10;;;20.00;74.60;;;;;;2609835;54;20196;-74
2021/09/04 11:37:34;;;;;;;12.88;6.75;;;20.10;75.00;;;;;;2608262;54;20085;-74
2021/09/04 11:40:05;;;;;;;11.30;7.50;;;20.10;76.10;;;;;;2609138;54;20042;-74
2021/09/04 11:42:34;;;;;;;12.57;7.22;;;20.20;76.40;;;;;;2609386;54;20122;-74
2021/09/04 11:45:07;;;;;;;12.98;6.97;;;20.20;74.30;;;;;;2609549;54;20038;-74
2021/09/04 11:47:34;;;;;;;11.90;7.22;;;20.20;74.60;;;;;;2609421;54;20049;-74
2021/09/04 11:50:03;;;;;;;10.50;6.50;;;20.20;73.70;;;;;;2609143;54;20175;-74
2021/09/04 11:52:38;;;;;;;11.65;6.88;;;20.20;73.90;;;;;;2607582;47;20080;-73
2021/09/04 11:55:17;;;;;;;11.60;6.88;;;20.20;75.00;;;;;;2607420;54;20034;-74
2021/09/04 11:57:48;;;;;;;16.92;7.50;;;20.20;74.60;;;;;;2607893;54;20034;-73
2021/09/04 12:00:21;;;;;;;13.43;7.68;;;20.10;74.60;;;;;;2607390;54;20079;-73
2021/09/04 12:03:00;;;;;;;14.02;8.20;;;20.10;74.80;;;;;;2607941;54;20062;-73
2021/09/04 12:05:33;;;;;;;13.05;7.68;;;20.10;75.00;;;;;;2608340;54;20951;-73
2021/09/04 12:08:07;;;;;;;12.02;6.97;;;20.00;75.00;;;;;;2607419;54;20039;-74
2021/09/04 12:10:38;;;;;;;14.05;7.80;;;20.10;75.90;;;;;;2608141;54;20042;-73
2021/09/04 12:13:07;;;;;;;12.35;6.45;;;20.10;75.20;;;;;;2607185;54;20083;-73
2021/09/04 12:15:34;;;;;;;19.98;7.50;;;20.10;74.50;;;;;;2608397;54;20034;-73
2021/09/04 12:18:06;;;;;;;10.63;6.72;;;20.20;74.90;;;;;;2606363;39;20840;-73
2021/09/04 12:20:32;;;;;;;11.77;7.00;;;20.20;74.80;;;;;;2607331;54;20042;-73
2021/09/04 12:23:10;;;;;;;11.50;7.38;;;20.20;74.00;;;;;;2608365;54;20042;-73
2021/09/04 12:25:35;;;;;;;14.93;7.05;;;20.20;74.50;;;;;;2609336;54;20038;-73
2021/09/04 12:28:10;;;;;;;14.45;7.28;;;20.30;74.60;;;;;;2608413;54;20849;-73
2021/09/04 12:31:00;;;;;;;10.27;6.68;;;20.30;73.80;;;;;;2608526;54;20038;-74
2021/09/04 12:33:29;;;;;;;16.38;7.47;;;20.40;73.90;;;;;;2609097;54;20038;-73
2021/09/04 12:35:56;;;;;;;10.52;6.35;;;20.30;73.60;;;;;;2608794;54;20042;-73
2021/09/04 12:38:29;;;;;;;10.35;7.20;;;20.40;74.00;;;;;;2609423;54;20045;-74
2021/09/04 12:41:05;;;;;;;12.88;7.18;;;20.40;73.70;;;;;;2608198;47;20050;-73